Time;durP1;ratioP1;P1;durP2;ratioP2;P2;SDS_P1;SDS_P2;PMS_P1;PMS_P2;Temp;Humidity;BMP_temperature;BMP_pressure;BME280_temperature;BME280_humidity;BME280_pressure;Samples;Min_cycle;Max_cycle;Signal;HPM_P1;HPM_P2
2021/08/28 00:01:43;;;;;;;13.35;8.65;;;12.10;99.90;;;;;;5086464;28;20574;-75
2021/08/28 00:04:09;;;;;;;10.63;8.13;;;12.00;99.90;;;;;;5084443;28;20028;-75
2021/08/28 00:06:34;;;;;;;10.52;8.40;;;11.70;99.90;;;;;;5080370;28;20016;-74
2021/08/28 00:09:00;;;;;;;11.25;7.53;;;11.70;99.90;;;;;;5084446;28;20021;-75
2021/08/28 00:11:25;;;;;;;9.80;6.63;;;11.80;99.90;;;;;;5088678;28;20059;-74
2021/08/28 00:13:51;;;;;;;12.95;8.60;;;12.00;99.90;;;;;;5082801;28;20075;-74
2021/08/28 00:16:16;;;;;;;14.80;9.32;;;12.00;99.90;;;;;;5080395;28;20108;-74
2021/08/28 00:18:42;;;;;;;9.88;7.75;;;11.70;99.90;;;;;;5084759;28;20457;-74
2021/08/28 00:21:08;;;;;;;12.30;9.07;;;11.70;99.90;;;;;;5086241;28;20031;-74
2021/08/28 00:23:34;;;;;;;10.50;7.95;;;11.80;99.90;;;;;;5081155;28;20039;-74
2021/08/28 00:25:59;;;;;;;12.98;9.23;;;11.80;99.90;;;;;;5078509;28;20028;-74
2021/08/28 00:28:25;;;;;;;16.35;9.18;;;11.80;99.90;;;;;;5083779;28;20032;-75
2021/08/28 00:30:50;;;;;;;20.20;11.25;;;11.80;99.90;;;;;;5084487;28;20042;-74
2021/08/28 00:33:17;;;;;;;17.90;10.82;;;11.80;99.90;;;;;;5080401;28;20027;-75
2021/08/28 00:35:43;;;;;;;16.45;10.35;;;11.60;99.90;;;;;;5077177;28;20027;-75
2021/08/28 00:38:09;;;;;;;19.08;10.70;;;11.50;99.90;;;;;;5082869;28;20028;-76
2021/08/28 00:40:36;;;;;;;18.80;11.13;;;11.70;99.90;;;;;;5085485;28;20043;-75
2021/08/28 00:43:02;;;;;;;11.43;8.82;;;11.80;99.90;;;;;;5080184;28;20103;-76
2021/08/28 00:45:30;;;;;;;13.75;9.10;;;11.80;99.90;;;;;;5078510;28;20147;-75
2021/08/28 00:47:57;;;;;;;11.65;8.30;;;11.90;99.90;;;;;;5082945;28;20111;-75
2021/08/28 00:50:25;;;;;;;10.02;7.15;;;11.90;99.90;;;;;;5084149;28;20021;-75
2021/08/28 00:52:51;;;;;;;12.82;7.50;;;12.00;99.90;;;;;;5080893;28;20056;-75
2021/08/28 00:55:17;;;;;;;8.88;6.50;;;12.00;99.90;;;;;;5078170;28;20029;-75
2021/08/28 00:57:43;;;;;;;7.22;6.15;;;12.20;99.90;;;;;;5091962;28;20028;-74
2021/08/28 01:00:09;;;;;;;13.48;7.15;;;12.30;99.90;;;;;;5078411;28;20111;-74
2021/08/28 01:02:41;;;;;;;9.38;7.47;;;12.30;99.90;;;;;;5098673;28;20375;-75
2021/08/28 01:05:26;;;;;;;10.30;6.78;;;12.30;99.90;;;;;;5087860;28;20028;-76
2021/08/28 01:08:18;;;;;;;8.88;6.22;;;12.30;99.90;;;;;;5095188;28;20046;-76
2021/08/28 01:10:52;;;;;;;8.07;7.00;;;12.50;99.90;;;;;;5087393;28;20032;-77
2021/08/28 01:13:18;;;;;;;10.13;8.20;;;12.50;99.90;;;;;;5085111;28;20028;-75
2021/08/28 01:15:47;;;;;;;7.50;6.40;;;12.30;99.90;;;;;;5070182;28;20024;-75
2021/08/28 01:18:14;;;;;;;14.27;9.20;;;12.20;99.90;;;;;;5085050;28;20029;-74
2021/08/28 01:21:04;;;;;;;12.10;7.88;;;12.10;99.90;;;;;;5071364;28;20029;-75
2021/08/28 01:23:33;;;;;;;9.93;7.13;;;12.10;99.90;;;;;;5079498;28;20028;-74
2021/08/28 01:26:03;;;;;;;9.55;6.95;;;12.10;99.90;;;;;;5078047;28;20394;-75
2021/08/28 01:28:34;;;;;;;13.93;7.93;;;12.10;99.90;;;;;;5082619;28;20021;-74
2021/08/28 01:31:00;;;;;;;13.77;8.68;;;12.10;99.90;;;;;;5074394;28;20050;-75
2021/08/28 01:33:27;;;;;;;18.10;9.57;;;11.80;99.90;;;;;;5090175;28;20028;-75
2021/08/28 01:35:53;;;;;;;16.50;9.60;;;11.60;99.90;;;;;;5078379;28;20028;-74
2021/08/28 01:38:19;;;;;;;17.10;9.10;;;11.50;99.90;;;;;;5080018;28;20446;-74
2021/08/28 01:40:46;;;;;;;9.98;6.68;;;11.50;99.90;;;;;;5088273;28;20051;-74
2021/08/28 01:43:11;;;;;;;8.13;6.18;;;11.70;99.90;;;;;;5092372;28;20072;-75
2021/08/28 01:45:37;;;;;;;11.13;7.47;;;11.90;99.90;;;;;;5078578;28;20036;-75
2021/08/28 01:48:04;;;;;;;9.32;7.20;;;12.00;99.90;;;;;;5084372;28;20083;-75
2021/08/28 01:50:30;;;;;;;9.77;6.60;;;12.10;99.90;;;;;;5088694;28;20027;-76
2021/08/28 01:52:55;;;;;;;11.52;7.53;;;12.20;99.90;;;;;;5084793;28;20036;-76
2021/08/28 01:55:21;;;;;;;12.63;8.07;;;12.20;99.90;;;;;;5081252;28;20024;-75
2021/08/28 01:57:47;;;;;;;14.60;9.25;;;12.10;99.90;;;;;;5095442;28;20031;-75
2021/08/28 02:00:13;;;;;;;24.50;11.07;;;11.90;99.90;;;;;;5084103;28;20025;-76
2021/08/28 02:02:38;;;;;;;15.82;9.00;;;11.50;99.90;;;;;;5084257;28;20035;-76
2021/08/28 02:05:04;;;;;;;15.88;7.55;;;11.50;99.90;;;;;;5090735;28;20024;-76
2021/08/28 02:07:54;;;;;;;18.02;9.65;;;11.60;99.90;;;;;;5094048;28;20016;-75
2021/08/28 02:10:24;;;;;;;19.30;9.65;;;11.60;99.90;;;;;;5080439;28;20046;-75
2021/08/28 02:13:01;;;;;;;13.15;8.45;;;11.60;99.90;;;;;;5082959;28;20052;-78
2021/08/28 02:15:33;;;;;;;20.83;10.07;;;11.70;99.90;;;;;;5073438;28;20025;-75
2021/08/28 02:18:07;;;;;;;10.95;7.50;;;11.80;99.90;;;;;;5088352;28;20048;-75
2021/08/28 02:20:39;;;;;;;8.77;6.82;;;11.90;99.90;;;;;;5085405;28;20034;-78
2021/08/28 02:23:10;;;;;;;13.13;8.60;;;11.90;99.90;;;;;;5081961;28;20026;-75
2021/08/28 02:25:47;;;;;;;14.35;9.38;;;11.90;99.90;;;;;;5081442;28;20028;-75
2021/08/28 02:28:16;;;;;;;18.08;10.30;;;12.00;99.90;;;;;;5073061;28;20032;-77
2021/08/28 02:30:45;;;;;;;14.65;8.98;;;11.90;99.90;;;;;;5087939;28;20490;-78
2021/08/28 02:33:11;;;;;;;18.00;10.13;;;11.90;99.90;;;;;;5080834;28;20378;-77
2021/08/28 02:35:37;;;;;;;9.80;7.85;;;11.90;99.90;;;;;;5080183;28;20485;-77
2021/08/28 02:38:04;;;;;;;12.38;8.13;;;12.00;99.90;;;;;;5087355;28;20032;-77
2021/08/28 02:40:33;;;;;;;9.10;6.97;;;12.10;99.90;;;;;;5084267;28;20028;-76
2021/08/28 02:42:59;;;;;;;13.07;9.27;;;12.10;99.90;;;;;;5086168;28;20031;-77
2021/08/28 02:45:26;;;;;;;17.10;9.70;;;12.10;99.90;;;;;;5088191;28;20028;-77
2021/08/28 02:47:53;;;;;;;14.40;9.25;;;12.00;99.90;;;;;;5095790;28;20028;-78
2021/08/28 02:50:20;;;;;;;11.57;7.40;;;11.80;99.90;;;;;;5080848;28;20389;-77
2021/08/28 02:52:48;;;;;;;9.43;7.55;;;11.90;99.90;;;;;;5084487;28;20090;-75
2021/08/28 02:55:15;;;;;;;13.30;9.20;;;12.00;99.90;;;;;;5087294;28;20044;-76
2021/08/28 02:57:44;;;;;;;10.38;7.95;;;12.00;99.90;;;;;;5082398;28;20026;-76
2021/08/28 03:00:10;;;;;;;13.90;9.43;;;12.00;99.90;;;;;;5079397;28;20394;-76
2021/08/28 03:02:37;;;;;;;11.93;9.27;;;12.10;99.90;;;;;;5085549;28;20047;-76
2021/08/28 03:05:05;;;;;;;11.15;7.43;;;12.10;99.90;;;;;;5085792;28;20044;-76
2021/08/28 03:07:33;;;;;;;9.73;7.40;;;12.00;99.90;;;;;;5082172;28;20496;-74
2021/08/28 03:10:00;;;;;;;10.23;8.13;;;12.10;99.90;;;;;;5080363;28;20028;-74
2021/08/28 03:12:26;;;;;;;9.60;7.50;;;12.20;99.90;;;;;;5093734;28;20073;-76
2021/08/28 03:14:52;;;;;;;9.75;7.78;;;12.10;99.90;;;;;;5079888;28;20024;-77
2021/08/28 03:17:19;;;;;;;8.18;6.75;;;12.10;99.90;;;;;;5095755;28;20016;-74
2021/08/28 03:19:47;;;;;;;9.02;7.20;;;12.10;99.90;;;;;;5083754;28;20119;-74
2021/08/28 03:22:17;;;;;;;12.05;8.52;;;12.20;99.90;;;;;;5085715;28;20034;-77
2021/08/28 03:24:47;;;;;;;12.30;8.88;;;12.20;99.90;;;;;;5091292;28;20039;-76
2021/08/28 03:27:14;;;;;;;11.80;9.00;;;12.20;99.90;;;;;;5087767;28;20016;-77
2021/08/28 03:29:41;;;;;;;12.57;8.90;;;12.10;99.90;;;;;;5081453;28;20032;-76
2021/08/28 03:32:07;;;;;;;11.07;8.18;;;12.10;99.90;;;;;;5090876;28;20056;-76
2021/08/28 03:34:34;;;;;;;9.93;8.25;;;12.00;99.90;;;;;;5095833;28;20024;-77
2021/08/28 03:37:00;;;;;;;14.32;8.93;;;12.10;99.90;;;;;;5081886;28;20103;-76
2021/08/28 03:39:27;;;;;;;8.32;7.30;;;12.00;99.90;;;;;;5088666;28;20448;-77
2021/08/28 03:41:52;;;;;;;12.88;9.75;;;12.10;99.90;;;;;;5073364;28;20570;-76
2021/08/28 03:44:18;;;;;;;12.55;9.13;;;12.10;99.90;;;;;;5090279;28;20119;-78
2021/08/28 03:46:46;;;;;;;13.63;10.18;;;11.90;99.90;;;;;;5081074;28;20025;-74
2021/08/28 03:49:12;;;;;;;18.20;10.90;;;11.90;99.90;;;;;;5086305;28;20024;-76
2021/08/28 03:51:38;;;;;;;14.00;9.88;;;11.80;99.90;;;;;;5086006;28;20043;-77
2021/08/28 03:54:04;;;;;;;15.82;10.00;;;11.90;99.90;;;;;;5081859;28;20031;-77
2021/08/28 03:56:29;;;;;;;10.95;8.50;;;11.80;99.90;;;;;;5081529;28;20027;-77
2021/08/28 03:58:55;;;;;;;10.45;7.90;;;11.90;99.90;;;;;;5086270;28;20037;-77
2021/08/28 04:01:21;;;;;;;9.18;8.20;;;12.00;99.90;;;;;;5072454;28;20035;-77
2021/08/28 04:03:47;;;;;;;9.73;8.57;;;12.10;99.90;;;;;;5085877;28;20028;-77
2021/08/28 04:06:12;;;;;;;11.00;8.75;;;12.10;99.90;;;;;;5084004;28;20028;-78
2021/08/28 04:08:38;;;;;;;9.40;7.70;;;12.20;99.90;;;;;;5079002;28;20089;-76
2021/08/28 04:11:03;;;;;;;9.80;8.80;;;12.20;99.90;;;;;;5080390;28;20029;-76
2021/08/28 04:13:29;;;;;;;10.18;8.48;;;12.00;99.90;;;;;;5084798;28;20031;-74
2021/08/28 04:15:54;;;;;;;9.48;8.50;;;11.90;99.90;;;;;;5072052;28;20020;-76
2021/08/28 04:18:20;;;;;;;9.70;8.77;;;11.90;99.90;;;;;;5084501;28;20028;-76
2021/08/28 04:20:46;;;;;;;10.75;9.65;;;11.90;99.90;;;;;;5084511;28;20039;-77
2021/08/28 04:23:11;;;;;;;10.02;8.40;;;11.90;99.90;;;;;;5087307;28;20024;-76
2021/08/28 04:25:37;;;;;;;8.88;8.00;;;11.90;99.90;;;;;;5083717;28;20032;-77
2021/08/28 04:28:03;;;;;;;9.60;8.32;;;11.90;99.90;;;;;;5073019;28;20063;-77
2021/08/28 04:30:28;;;;;;;10.18;8.98;;;11.90;99.90;;;;;;5083912;28;20410;-77
2021/08/28 04:32:55;;;;;;;9.00;7.72;;;11.90;99.90;;;;;;5078981;28;20389;-76
2021/08/28 04:35:21;;;;;;;11.05;9.10;;;12.00;99.90;;;;;;5080426;28;20391;-77
2021/08/28 04:37:46;;;;;;;9.30;8.02;;;12.00;99.90;;;;;;5085665;28;20074;-77
2021/08/28 04:40:12;;;;;;;10.90;9.43;;;12.00;99.90;;;;;;5085876;28;20371;-77
2021/08/28 04:42:38;;;;;;;11.25;9.05;;;12.00;99.90;;;;;;5078417;28;20042;-77
2021/08/28 04:45:07;;;;;;;9.68;8.68;;;12.00;99.90;;;;;;5090859;28;20028;-76
2021/08/28 04:47:33;;;;;;;10.07;8.88;;;12.10;99.90;;;;;;5078416;28;20024;-75
2021/08/28 04:49:58;;;;;;;8.05;7.35;;;12.10;99.90;;;;;;5080170;28;20025;-74
2021/08/28 04:52:24;;;;;;;10.25;9.10;;;12.20;99.90;;;;;;5090195;28;20089;-76
2021/08/28 04:54:50;;;;;;;8.88;7.85;;;12.20;99.90;;;;;;5079993;28;20024;-76
2021/08/28 04:57:16;;;;;;;8.55;7.45;;;12.10;99.90;;;;;;5084130;28;20017;-76
2021/08/28 04:59:41;;;;;;;9.93;8.55;;;12.20;99.90;;;;;;5083815;28;20050;-75
2021/08/28 05:02:07;;;;;;;10.13;9.10;;;12.20;99.90;;;;;;5086590;28;20024;-75
2021/08/28 05:04:33;;;;;;;12.65;10.32;;;12.20;99.90;;;;;;5083422;28;20031;-76
2021/08/28 05:06:58;;;;;;;16.38;10.88;;;12.00;99.90;;;;;;5086938;28;20078;-76
2021/08/28 05:09:24;;;;;;;15.90;10.98;;;11.90;99.90;;;;;;5083473;28;20028;-76
2021/08/28 05:11:50;;;;;;;14.35;10.27;;;11.90;99.90;;;;;;5076968;28;20024;-76
2021/08/28 05:14:15;;;;;;;14.40;10.93;;;11.80;99.90;;;;;;5078607;28;20064;-77
2021/08/28 05:16:41;;;;;;;12.30;9.98;;;11.80;99.90;;;;;;5076285;28;20044;-76
2021/08/28 05:19:06;;;;;;;11.93;9.95;;;11.90;99.90;;;;;;5091867;28;20024;-74
2021/08/28 05:21:32;;;;;;;48.17;28.38;;;12.00;99.90;;;;;;5089081;28;20052;-76
2021/08/28 05:23:58;;;;;;;17.13;12.65;;;12.00;99.90;;;;;;5085873;28;20464;-76
2021/08/28 05:26:25;;;;;;;11.25;10.13;;;12.00;99.90;;;;;;5080643;28;20031;-76
2021/08/28 05:28:50;;;;;;;10.23;9.13;;;12.10;99.90;;;;;;5083979;28;20054;-76
2021/08/28 05:31:16;;;;;;;9.57;7.90;;;12.30;99.90;;;;;;5087807;28;20028;-76
2021/08/28 05:33:42;;;;;;;9.32;8.23;;;12.20;99.90;;;;;;5085679;28;20048;-77
2021/08/28 05:36:07;;;;;;;9.90;7.50;;;12.30;99.90;;;;;;5080441;28;20020;-76
2021/08/28 05:38:33;;;;;;;9.60;8.10;;;12.30;99.90;;;;;;5083078;28;20029;-77
2021/08/28 05:40:59;;;;;;;9.10;8.20;;;12.30;99.90;;;;;;5091879;28;20468;-77
2021/08/28 05:43:24;;;;;;;9.80;7.40;;;12.30;99.90;;;;;;5084447;28;20021;-75
2021/08/28 05:45:50;;;;;;;9.95;7.72;;;12.40;99.90;;;;;;5091435;28;20069;-75
2021/08/28 05:48:16;;;;;;;9.50;8.50;;;12.20;99.90;;;;;;5084383;28;20048;-75
2021/08/28 05:50:41;;;;;;;9.00;8.20;;;12.20;99.90;;;;;;5078993;28;20386;-76
2021/08/28 05:53:07;;;;;;;9.68;7.70;;;12.30;99.90;;;;;;5084481;28;20033;-76
2021/08/28 05:55:32;;;;;;;8.30;7.50;;;12.20;99.90;;;;;;5087148;28;20107;-77
2021/08/28 05:57:58;;;;;;;8.93;8.05;;;12.30;99.90;;;;;;5085430;28;20032;-76
2021/08/28 06:00:23;;;;;;;9.32;8.43;;;12.30;99.90;;;;;;5090238;28;20027;-75
2021/08/28 06:02:49;;;;;;;8.48;7.72;;;12.30;99.90;;;;;;5084958;28;20537;-75
2021/08/28 06:05:14;;;;;;;9.32;8.43;;;12.30;99.90;;;;;;5076494;28;20119;-76
2021/08/28 06:07:40;;;;;;;9.10;8.20;;;12.30;99.90;;;;;;5084723;28;20031;-76
2021/08/28 06:10:07;;;;;;;11.55;10.45;;;12.20;99.90;;;;;;5080036;28;20115;-77
2021/08/28 06:12:34;;;;;;;10.82;9.80;;;12.30;99.90;;;;;;5084769;28;20020;-75
2021/08/28 06:15:00;;;;;;;12.85;11.57;;;12.30;99.90;;;;;;5091401;28;20099;-76
2021/08/28 06:17:25;;;;;;;8.88;7.70;;;12.40;99.90;;;;;;5094810;28;20104;-76
2021/08/28 06:19:51;;;;;;;11.57;10.48;;;12.50;99.90;;;;;;5081715;28;20020;-75
2021/08/28 06:22:17;;;;;;;8.32;7.53;;;12.60;99.90;;;;;;5080665;28;20437;-75
2021/08/28 06:24:42;;;;;;;7.85;7.05;;;12.70;99.90;;;;;;5074233;28;20037;-74
2021/08/28 06:27:08;;;;;;;19.45;15.23;;;12.80;99.90;;;;;;5074241;28;20032;-75
2021/08/28 06:29:34;;;;;;;10.32;8.95;;;12.80;99.90;;;;;;5087811;28;20029;-75
2021/08/28 06:32:00;;;;;;;14.45;12.98;;;12.80;99.90;;;;;;5083035;28;20166;-75
2021/08/28 06:34:26;;;;;;;10.18;9.13;;;12.70;99.90;;;;;;5089447;28;20553;-74
2021/08/28 06:36:51;;;;;;;9.40;7.82;;;12.80;99.90;;;;;;5076083;28;20091;-74
2021/08/28 06:39:17;;;;;;;12.38;10.30;;;12.90;99.90;;;;;;5076859;28;20020;-74
2021/08/28 06:41:42;;;;;;;9.63;7.10;;;13.10;99.90;;;;;;5084073;28;20021;-75
2021/08/28 06:44:08;;;;;;;8.25;7.45;;;13.10;99.90;;;;;;5087515;28;20033;-74
2021/08/28 06:46:33;;;;;;;8.13;7.03;;;13.10;99.90;;;;;;5083632;28;20081;-74
2021/08/28 06:48:59;;;;;;;7.28;6.60;;;13.10;99.90;;;;;;5080448;28;20028;-74
2021/08/28 06:51:24;;;;;;;8.30;7.03;;;13.10;99.90;;;;;;5094359;28;20027;-74
2021/08/28 06:53:50;;;;;;;7.63;6.82;;;13.10;99.90;;;;;;5080210;28;20218;-74
2021/08/28 06:56:16;;;;;;;9.25;8.32;;;13.00;99.90;;;;;;5093721;28;20054;-74
2021/08/28 06:58:42;;;;;;;8.57;7.72;;;13.00;99.90;;;;;;5092552;28;20050;-74
2021/08/28 07:01:08;;;;;;;7.63;6.85;;;13.00;99.90;;;;;;5092667;28;20024;-75
2021/08/28 07:03:33;;;;;;;8.00;7.20;;;13.10;99.90;;;;;;5089458;28;20024;-74
2021/08/28 07:05:59;;;;;;;7.63;6.80;;;13.30;99.90;;;;;;5086125;28;20029;-75
2021/08/28 07:08:24;;;;;;;8.50;6.72;;;13.40;99.90;;;;;;5082913;28;20029;-75
2021/08/28 07:10:50;;;;;;;7.90;7.20;;;13.40;99.90;;;;;;5102705;28;20034;-75
2021/08/28 07:13:15;;;;;;;7.45;6.72;;;13.30;99.90;;;;;;5088510;28;20096;-75
2021/08/28 07:15:41;;;;;;;7.95;7.25;;;13.40;99.90;;;;;;5095162;28;20026;-75
2021/08/28 07:18:08;;;;;;;8.27;7.38;;;13.30;99.90;;;;;;5085893;28;20021;-75
2021/08/28 07:20:35;;;;;;;7.78;7.07;;;13.30;99.90;;;;;;5093709;28;20024;-75
2021/08/28 07:23:00;;;;;;;8.02;7.00;;;13.30;99.90;;;;;;5079654;28;20073;-75
2021/08/28 07:25:26;;;;;;;7.55;6.85;;;13.30;99.90;;;;;;5088545;28;20035;-75
2021/08/28 07:27:52;;;;;;;8.27;6.90;;;13.40;99.90;;;;;;5101064;28;20052;-75
2021/08/28 07:30:17;;;;;;;8.68;7.72;;;13.40;99.90;;;;;;5083604;28;20438;-75
2021/08/28 07:32:43;;;;;;;8.00;7.20;;;13.40;99.90;;;;;;5088640;28;20074;-75
2021/08/28 07:35:08;;;;;;;7.35;6.65;;;13.20;99.90;;;;;;5082171;28;20020;-75
2021/08/28 07:37:34;;;;;;;8.00;6.47;;;13.30;99.90;;;;;;5079468;28;20035;-75
2021/08/28 07:40:00;;;;;;;7.53;6.82;;;13.50;99.90;;;;;;5085273;28;20064;-75
2021/08/28 07:42:25;;;;;;;7.57;6.97;;;13.40;99.90;;;;;;5092532;28;20027;-75
2021/08/28 07:44:51;;;;;;;6.57;5.95;;;13.40;99.90;;;;;;5081283;28;20494;-75
2021/08/28 07:47:16;;;;;;;6.55;5.90;;;13.50;99.90;;;;;;5083527;28;20027;-74
2021/08/28 07:49:42;;;;;;;6.15;5.55;;;13.60;99.90;;;;;;5083569;28;20059;-74
2021/08/28 07:52:07;;;;;;;6.38;5.38;;;13.80;99.90;;;;;;5088616;28;20038;-74
2021/08/28 07:54:33;;;;;;;5.50;5.00;;;13.90;99.90;;;;;;5085861;28;20028;-75
2021/08/28 07:57:00;;;;;;;6.18;5.57;;;14.00;99.90;;;;;;5089209;28;20027;-74
2021/08/28 07:59:25;;;;;;;7.15;5.95;;;14.10;99.90;;;;;;5090062;28;20031;-74
2021/08/28 08:01:53;;;;;;;6.20;5.63;;;14.00;99.90;;;;;;5083696;28;20183;-75
2021/08/28 08:04:18;;;;;;;5.93;5.03;;;13.90;99.90;;;;;;5091982;28;20016;-75
2021/08/28 08:06:44;;;;;;;7.63;5.13;;;14.00;99.90;;;;;;5078964;28;20097;-75
2021/08/28 08:09:09;;;;;;;5.88;4.90;;;14.20;99.90;;;;;;5091812;28;20061;-75
2021/08/28 08:11:35;;;;;;;6.22;5.45;;;14.20;99.90;;;;;;5079898;28;20551;-75
2021/08/28 08:14:01;;;;;;;6.18;5.57;;;14.00;99.90;;;;;;5083032;28;20024;-76
2021/08/28 08:16:27;;;;;;;6.35;5.70;;;13.90;99.90;;;;;;5084028;28;20370;-75
2021/08/28 08:18:53;;;;;;;7.55;5.55;;;13.80;99.90;;;;;;5083527;28;20453;-75
2021/08/28 08:21:19;;;;;;;5.78;5.28;;;13.80;99.90;;;;;;5086043;28;20017;-74
2021/08/28 08:23:44;;;;;;;7.00;4.70;;;14.00;99.90;;;;;;5072080;28;20520;-74
2021/08/28 08:26:10;;;;;;;6.15;4.88;;;14.10;99.90;;;;;;5074771;28;20024;-75
2021/08/28 08:28:36;;;;;;;5.43;4.90;;;14.20;99.90;;;;;;5082564;28;20452;-75
2021/08/28 08:31:02;;;;;;;5.13;4.60;;;14.10;99.90;;;;;;5085826;28;20031;-74
2021/08/28 08:33:27;;;;;;;6.97;4.63;;;14.40;99.90;;;;;;5081388;28;20024;-74
2021/08/28 08:35:53;;;;;;;5.53;4.00;;;14.40;99.90;;;;;;5074273;28;20025;-75
2021/08/28 08:38:19;;;;;;;4.10;3.70;;;14.50;99.90;;;;;;5081359;28;20028;-75
2021/08/28 08:40:47;;;;;;;4.55;4.15;;;14.50;99.90;;;;;;5091978;28;20019;-74
2021/08/28 08:43:13;;;;;;;5.10;3.83;;;14.70;99.90;;;;;;5092040;28;20105;-75
2021/08/28 08:45:39;;;;;;;5.60;3.80;;;14.80;99.90;;;;;;5078501;28;20548;-75
2021/08/28 08:48:05;;;;;;;5.22;4.30;;;14.80;99.90;;;;;;5081622;28;20107;-75
2021/08/28 08:50:31;;;;;;;4.40;4.00;;;14.40;99.90;;;;;;5079595;28;20471;-74
2021/08/28 08:53:02;;;;;;;4.00;3.60;;;14.50;99.90;;;;;;5091592;28;20032;-74
2021/08/28 08:55:28;;;;;;;5.18;4.00;;;14.80;99.90;;;;;;5076599;28;20021;-75
2021/08/28 08:57:54;;;;;;;4.90;3.50;;;14.90;99.90;;;;;;5081461;28;20025;-75
2021/08/28 09:00:19;;;;;;;4.00;3.60;;;15.00;99.90;;;;;;5088691;28;20359;-75
2021/08/28 09:02:45;;;;;;;3.25;2.70;;;15.20;99.90;;;;;;5080515;28;20067;-74
2021/08/28 09:05:10;;;;;;;3.92;3.40;;;15.80;99.90;;;;;;5087853;28;20028;-74
2021/08/28 09:07:36;;;;;;;3.85;2.92;;;16.10;99.90;;;;;;5081783;28;20074;-75
2021/08/28 09:10:02;;;;;;;5.22;3.40;;;16.00;99.90;;;;;;5083949;28;20024;-74
2021/08/28 09:12:35;;;;;;;5.20;2.85;;;16.00;99.90;;;;;;5070227;28;20024;-75
2021/08/28 09:15:01;;;;;;;4.03;2.70;;;16.10;99.90;;;;;;5074809;28;20028;-75
2021/08/28 09:17:27;;;;;;;4.25;2.60;;;16.20;99.90;;;;;;5090845;28;20436;-75
2021/08/28 09:19:52;;;;;;;2.95;2.40;;;15.80;99.90;;;;;;5086424;28;20451;-75
2021/08/28 09:22:29;;;;;;;2.88;2.60;;;15.40;99.90;;;;;;5082702;28;20028;-75
2021/08/28 09:25:04;;;;;;;3.50;2.85;;;15.30;99.90;;;;;;5077965;28;20032;-75
2021/08/28 09:27:32;;;;;;;6.50;3.40;;;15.20;99.90;;;;;;5091103;28;20386;-75
2021/08/28 09:29:58;;;;;;;4.10;3.33;;;14.80;99.90;;;;;;5079087;28;20025;-74
2021/08/28 09:32:24;;;;;;;5.60;4.07;;;14.50;99.90;;;;;;5087969;28;20502;-74
2021/08/28 09:34:50;;;;;;;4.07;3.67;;;14.30;99.90;;;;;;5091313;28;20051;-74
2021/08/28 09:37:15;;;;;;;6.15;4.55;;;14.20;99.90;;;;;;5090864;28;20021;-75
2021/08/28 09:39:42;;;;;;;5.88;5.10;;;14.10;99.90;;;;;;5084551;28;20050;-75
2021/08/28 09:42:10;;;;;;;5.93;5.18;;;13.70;99.90;;;;;;5094123;28;20024;-74
2021/08/28 09:44:38;;;;;;;6.68;4.93;;;13.70;99.90;;;;;;5102811;28;20019;-74
2021/08/28 09:47:24;;;;;;;8.38;5.22;;;13.90;99.90;;;;;;5081068;28;20035;-76
2021/08/28 09:49:52;;;;;;;6.85;5.10;;;14.00;99.90;;;;;;5081012;28;20051;-75
2021/08/28 09:52:24;;;;;;;7.88;4.20;;;14.10;99.90;;;;;;5084900;28;20103;-76
2021/08/28 09:54:50;;;;;;;7.55;4.65;;;14.20;99.90;;;;;;5084432;28;20048;-76
2021/08/28 09:57:16;;;;;;;13.88;11.73;;;14.00;99.90;;;;;;5081964;28;20024;-75
2021/08/28 09:59:43;;;;;;;4.43;3.53;;;14.00;99.90;;;;;;5082990;28;20025;-76
2021/08/28 10:02:15;;;;;;;5.00;3.75;;;14.10;99.90;;;;;;5082114;28;20064;-76
2021/08/28 10:04:53;;;;;;;4.10;3.80;;;14.40;99.90;;;;;;5088005;28;20020;-75
2021/08/28 10:07:25;;;;;;;4.20;3.80;;;14.40;99.90;;;;;;5087343;28;20036;-75
2021/08/28 10:10:02;;;;;;;5.13;4.10;;;14.70;99.90;;;;;;5081104;28;20115;-76
2021/08/28 10:12:33;;;;;;;5.00;4.30;;;14.80;99.90;;;;;;5086526;28;20406;-75
2021/08/28 10:15:00;;;;;;;3.95;3.65;;;14.90;99.90;;;;;;5077327;28;20034;-75
2021/08/28 10:17:27;;;;;;;4.88;3.83;;;15.00;99.90;;;;;;5086155;28;20020;-75
2021/08/28 10:19:55;;;;;;;5.18;4.28;;;15.20;99.90;;;;;;5081059;28;20090;-75
2021/08/28 10:22:23;;;;;;;5.00;4.53;;;15.20;99.90;;;;;;5094742;28;20028;-75
2021/08/28 10:24:53;;;;;;;3.95;3.65;;;15.30;99.90;;;;;;5080561;28;20035;-76
2021/08/28 10:27:24;;;;;;;3.70;3.40;;;15.50;99.90;;;;;;5096642;28;20385;-76
2021/08/28 10:29:50;;;;;;;3.38;2.97;;;15.60;99.90;;;;;;5094559;28;20027;-76
2021/08/28 10:32:16;;;;;;;2.95;2.65;;;15.70;99.90;;;;;;5080049;28;20471;-76
2021/08/28 10:34:42;;;;;;;3.38;3.10;;;16.10;99.90;;;;;;5087465;28;20025;-76
2021/08/28 10:37:08;;;;;;;2.90;2.70;;;16.50;99.90;;;;;;5087204;28;20024;-75
2021/08/28 10:39:35;;;;;;;2.83;2.63;;;16.20;99.90;;;;;;5080779;28;20394;-75
2021/08/28 10:42:01;;;;;;;2.40;2.20;;;16.00;99.90;;;;;;5089024;28;20090;-74
2021/08/28 10:44:27;;;;;;;2.50;2.30;;;16.50;99.90;;;;;;5094979;28;20020;-74
2021/08/28 10:46:53;;;;;;;2.42;2.22;;;16.70;99.90;;;;;;5090364;28;20394;-75
2021/08/28 10:49:21;;;;;;;2.60;2.40;;;17.20;99.90;;;;;;5099940;28;20035;-73
2021/08/28 10:51:53;;;;;;;3.72;2.22;;;17.20;99.90;;;;;;5090604;28;20028;-73
2021/08/28 10:54:24;;;;;;;3.00;2.70;;;17.20;99.90;;;;;;5102160;28;20032;-75
2021/08/28 10:56:50;;;;;;;2.30;2.10;;;17.00;99.90;;;;;;5100481;28;20030;-74
2021/08/28 10:59:22;;;;;;;2.65;2.15;;;17.20;99.90;;;;;;5090874;28;20111;-75
2021/08/28 11:02:07;;;;;;;2.40;2.20;;;17.30;99.90;;;;;;5083380;28;20024;-74
2021/08/28 11:04:46;;;;;;;4.13;2.20;;;17.40;99.90;;;;;;5086418;28;20161;-75
2021/08/28 11:07:28;;;;;;;2.22;2.00;;;16.60;99.90;;;;;;5099119;28;20027;-74
2021/08/28 11:10:10;;;;;;;2.40;2.20;;;16.90;99.90;;;;;;5079622;28;20383;-74
2021/08/28 11:12:52;;;;;;;2.70;2.50;;;16.90;99.90;;;;;;5077711;28;20023;-75
2021/08/28 11:15:35;;;;;;;3.20;2.90;;;16.10;99.90;;;;;;5086551;28;20024;-75
2021/08/28 11:18:04;;;;;;;3.90;2.95;;;15.70;99.90;;;;;;5087191;28;20440;-74
2021/08/28 11:20:39;;;;;;;3.42;3.00;;;15.30;99.90;;;;;;5079218;28;20075;-74
2021/08/28 11:23:13;;;;;;;4.05;3.75;;;15.30;99.90;;;;;;5098220;28;20146;-74
2021/08/28 11:25:42;;;;;;;6.30;5.15;;;15.40;99.90;;;;;;5076441;28;20436;-75
2021/08/28 11:28:09;;;;;;;5.78;4.38;;;15.60;99.90;;;;;;5095609;28;20098;-75
2021/08/28 11:30:46;;;;;;;7.03;5.82;;;15.70;99.90;;;;;;5083064;28;20046;-75
2021/08/28 11:33:24;;;;;;;6.93;5.88;;;15.70;99.90;;;;;;5088475;28;20024;-75
2021/08/28 11:36:17;;;;;;;6.18;5.40;;;15.20;99.90;;;;;;5069758;28;20046;-74
2021/08/28 11:38:53;;;;;;;5.20;4.70;;;15.30;99.90;;;;;;5071602;28;20021;-75
2021/08/28 11:41:21;;;;;;;5.63;4.07;;;15.80;99.90;;;;;;5081715;28;20039;-75
2021/08/28 11:43:48;;;;;;;3.90;3.60;;;16.10;99.90;;;;;;5091586;28;20411;-75
2021/08/28 11:46:25;;;;;;;5.43;4.93;;;16.90;99.90;;;;;;5085041;28;20093;-75
2021/08/28 11:48:51;;;;;;;5.63;5.13;;;17.10;99.90;;;;;;5072713;28;20074;-74
2021/08/28 11:51:19;;;;;;;5.90;3.70;;;16.80;99.90;;;;;;5082247;28;20024;-75
2021/08/28 11:53:49;;;;;;;3.80;3.50;;;16.90;99.90;;;;;;5076259;28;20074;-77
2021/08/28 11:56:17;;;;;;;2.90;2.60;;;16.80;99.90;;;;;;5072633;28;20364;-75
2021/08/28 11:58:55;;;;;;;2.83;2.63;;;17.10;99.90;;;;;;5071422;28;20487;-75
2021/08/28 12:01:26;;;;;;;2.60;2.40;;;16.90;99.90;;;;;;5087873;28;20038;-74
2021/08/28 12:03:51;;;;;;;2.97;2.13;;;17.20;99.90;;;;;;5091375;28;20031;-75
2021/08/28 12:06:17;;;;;;;2.70;2.30;;;17.60;99.90;;;;;;5092488;28;20044;-75
2021/08/28 12:08:43;;;;;;;3.30;2.10;;;17.90;99.90;;;;;;5087043;28;20081;-75
2021/08/28 12:11:09;;;;;;;3.30;2.40;;;18.50;99.90;;;;;;5078706;28;20023;-75
2021/08/28 12:13:48;;;;;;;2.88;2.42;;;18.30;99.90;;;;;;5083814;28;20027;-76
2021/08/28 12:16:33;;;;;;;3.60;2.67;;;17.90;99.90;;;;;;5081203;28;20031;-75
2021/08/28 12:19:03;;;;;;;2.70;2.50;;;17.80;99.90;;;;;;5086181;28;20422;-75
2021/08/28 12:21:30;;;;;;;2.60;2.00;;;17.90;99.90;;;;;;5087267;28;20433;-75
2021/08/28 12:23:56;;;;;;;2.70;2.20;;;17.80;99.90;;;;;;5085454;28;20637;-75
2021/08/28 12:26:22;;;;;;;2.50;2.30;;;17.40;99.90;;;;;;5089885;28;20103;-75
2021/08/28 12:28:49;;;;;;;2.47;1.80;;;17.50;99.90;;;;;;5079797;28;20024;-75
2021/08/28 12:31:18;;;;;;;3.85;2.20;;;17.60;99.90;;;;;;5090240;28;20016;-75
2021/08/28 12:33:44;;;;;;;2.35;2.15;;;17.30;99.90;;;;;;5079912;28;20043;-75
2021/08/28 12:36:27;;;;;;;2.88;1.60;;;17.00;99.90;;;;;;5086052;28;20074;-75
2021/08/28 12:39:07;;;;;;;1.63;1.52;;;16.70;99.90;;;;;;5084957;28;20073;-76
2021/08/28 12:41:34;;;;;;;3.50;1.67;;;16.50;99.90;;;;;;5079318;28;20025;-76
2021/08/28 12:44:00;;;;;;;2.50;1.70;;;16.20;99.90;;;;;;5087217;28;20089;-75
2021/08/28 12:46:28;;;;;;;2.45;2.20;;;16.00;99.90;;;;;;5080847;28;20032;-75